Time;durP1;ratioP1;P1;durP2;ratioP2;P2;SDS_P1;SDS_P2;PMS_P1;PMS_P2;Temp;Humidity;BMP_temperature;BMP_pressure;BME280_temperature;BME280_humidity;BME280_pressure;Samples;Min_cycle;Max_cycle;Signal;HPM_P1;HPM_P2
2022/03/01 00:00:49;;;;;;;18.40;11.60;;;;;;;4.78;36.23;99357.81;8337599;28;20431;-64
2022/03/01 00:04:53;;;;;;;14.70;11.73;;;;;;;4.29;37.14;99366.28;8347532;28;20511;-64
2022/03/01 00:08:56;;;;;;;14.30;11.03;;;;;;;3.91;37.71;99374.66;8347343;28;20239;-63
2022/03/01 00:12:59;;;;;;;14.87;11.13;;;;;;;4.21;37.13;99357.72;8347359;28;20227;-63
2022/03/01 00:17:03;;;;;;;15.17;11.20;;;;;;;4.32;37.07;99366.25;8347082;28;20232;-63
2022/03/01 00:21:06;;;;;;;14.80;11.83;;;;;;;4.04;37.52;99361.06;8347274;28;20243;-63
2022/03/01 00:25:10;;;;;;;15.27;12.27;;;;;;;4.00;37.99;99349.06;8347182;28;20238;-63
2022/03/01 00:29:13;;;;;;;13.37;11.07;;;;;;;3.97;37.60;99356.75;8346927;28;20243;-63
2022/03/01 00:33:17;;;;;;;14.63;11.17;;;;;;;4.39;37.04;99362.88;8346775;28;20239;-63
2022/03/01 00:37:20;;;;;;;14.27;11.17;;;;;;;4.33;37.15;99360.31;8346428;28;20235;-63
2022/03/01 00:41:23;;;;;;;16.40;11.70;;;;;;;4.20;37.15;99363.69;8346347;28;20231;-63
2022/03/01 00:45:26;;;;;;;17.13;10.80;;;;;;;4.49;36.55;99350.94;8349759;28;20250;-62
2022/03/01 00:49:31;;;;;;;16.00;10.90;;;;;;;4.80;36.57;99351.00;8352112;28;20258;-63
2022/03/01 00:53:34;;;;;;;15.43;11.20;;;;;;;4.73;36.41;99350.13;8351804;28;20232;-64
2022/03/01 00:57:37;;;;;;;14.13;10.87;;;;;;;4.96;36.72;99351.88;8352203;28;20236;-64
2022/03/01 01:01:42;;;;;;;17.10;11.00;;;;;;;5.07;36.55;99348.44;8351813;28;20545;-64
2022/03/01 01:05:46;;;;;;;17.40;11.70;;;;;;;4.89;36.55;99343.28;8351818;28;20232;-64
2022/03/01 01:09:49;;;;;;;16.40;11.07;;;;;;;4.92;35.82;99337.31;8351744;28;20235;-64
2022/03/01 01:13:52;;;;;;;14.60;10.73;;;;;;;5.06;35.84;99333.91;8351847;28;20228;-63
2022/03/01 01:17:55;;;;;;;15.37;10.53;;;;;;;5.04;35.79;99332.16;8351531;28;20236;-63
2022/03/01 01:26:20;;;;;;;17.67;11.23;;;;;;;4.88;35.85;99328.75;8351435;28;20231;-64
2022/03/01 01:30:25;;;;;;;15.23;10.73;;;;;;;5.01;36.33;99332.19;8351438;28;20242;-63
2022/03/01 01:34:28;;;;;;;15.33;10.03;;;;;;;4.94;36.41;99331.31;8351012;28;20236;-63
2022/03/01 01:38:32;;;;;;;12.43;10.33;;;;;;;4.97;35.90;99333.91;8350883;28;20239;-63
2022/03/01 01:42:35;;;;;;;15.20;10.53;;;;;;;4.93;36.01;99327.06;8351068;28;20235;-63
2022/03/01 01:46:38;;;;;;;13.63;10.73;;;;;;;4.99;36.06;99323.59;8352561;28;20250;-63
2022/03/01 01:50:42;;;;;;;14.57;9.77;;;;;;;4.92;35.13;99322.75;8352290;28;20204;-63
2022/03/01 01:54:47;;;;;;;12.97;9.87;;;;;;;4.94;35.29;99323.63;8352244;28;20215;-63
2022/03/01 01:58:50;;;;;;;14.60;10.80;;;;;;;4.81;35.72;99322.75;8352305;28;20207;-63
2022/03/01 02:02:53;;;;;;;11.70;10.13;;;;;;;4.92;34.97;99319.34;8350335;28;20236;-63
2022/03/01 02:06:56;;;;;;;14.37;10.87;;;;;;;4.81;35.64;99315.03;8349886;28;20234;-63
2022/03/01 02:11:02;;;;;;;13.33;10.13;;;;;;;4.84;35.50;99317.63;8349189;28;20228;-63
2022/03/01 02:15:06;;;;;;;15.50;10.37;;;;;;;4.67;36.19;99311.63;8349662;28;20539;-63
2022/03/01 02:19:12;;;;;;;14.43;10.67;;;;;;;4.52;35.84;99314.19;8349642;28;20243;-63
2022/03/01 02:23:17;;;;;;;14.20;9.93;;;;;;;4.18;35.94;99308.97;8349431;28;20427;-63
2022/03/01 02:27:21;;;;;;;14.93;10.00;;;;;;;3.93;36.50;99303.75;8349265;28;20295;-63
2022/03/01 02:31:24;;;;;;;13.43;10.33;;;;;;;3.47;37.48;99306.09;8349214;28;20243;-63
2022/03/01 02:35:27;;;;;;;17.33;10.87;;;;;;;2.90;38.51;99308.28;8349066;28;20228;-63
2022/03/01 02:39:32;;;;;;;12.87;10.03;;;;;;;3.28;37.91;99307.69;8348869;28;20247;-63
2022/03/01 02:43:34;;;;;;;13.27;10.33;;;;;;;3.25;37.67;99308.53;8348374;28;20543;-64
2022/03/01 02:47:38;;;;;;;13.97;10.40;;;;;;;3.39;37.92;99303.50;8348749;28;20427;-63
2022/03/01 02:51:41;;;;;;;14.97;9.70;;;;;;;3.48;37.25;99303.56;8348654;28;20236;-63
2022/03/01 02:55:46;;;;;;;13.10;9.90;;;;;;;3.79;36.94;99297.69;8348569;28;20232;-63
2022/03/01 02:59:48;;;;;;;14.77;10.50;;;;;;;3.95;36.55;99296.94;8348187;28;20236;-63
2022/03/01 03:03:51;;;;;;;12.87;9.73;;;;;;;4.24;36.06;99293.59;8348573;28;20240;-63
2022/03/01 03:07:54;;;;;;;11.27;9.33;;;;;;;4.34;36.28;99290.22;8348094;28;20511;-63
2022/03/01 03:11:59;;;;;;;13.97;9.60;;;;;;;4.30;36.53;99293.59;8348100;28;20238;-63
2022/03/01 03:16:02;;;;;;;13.07;9.20;;;;;;;4.34;36.42;99285.09;8348049;28;20236;-63
2022/03/01 03:20:05;;;;;;;13.43;9.27;;;;;;;4.15;36.16;99291.00;8348178;28;20239;-63
2022/03/01 03:24:09;;;;;;;11.63;9.03;;;;;;;4.28;36.12;99290.19;8348040;28;20235;-63
2022/03/01 03:28:13;;;;;;;12.40;9.90;;;;;;;3.79;36.18;99290.91;8347424;28;20415;-63
2022/03/01 03:32:16;;;;;;;13.53;9.27;;;;;;;4.18;36.46;99293.59;8347841;28;20237;-63
2022/03/01 03:36:19;;;;;;;12.77;8.90;;;;;;;4.20;36.27;99297.00;8348126;28;20232;-63
2022/03/01 03:40:22;;;;;;;13.37;8.77;;;;;;;4.23;36.24;99290.19;8347347;28;20232;-63
2022/03/01 03:44:28;;;;;;;14.60;9.37;;;;;;;4.23;36.38;99290.19;8347404;28;20293;-63
2022/03/01 03:48:31;;;;;;;12.37;8.93;;;;;;;4.20;35.79;99294.44;8347059;28;20266;-66
2022/03/01 03:52:34;;;;;;;11.60;8.57;;;;;;;4.22;36.56;99285.88;8347417;28;20232;-63
2022/03/01 03:56:37;;;;;;;13.40;9.23;;;;;;;4.19;37.10;99292.72;8347231;28;20236;-63
2022/03/01 04:00:41;;;;;;;10.90;8.70;;;;;;;4.12;36.78;99281.59;8346795;28;20346;-64
2022/03/01 04:04:44;;;;;;;12.77;8.87;;;;;;;4.07;36.79;99288.41;8347260;28;20244;-63
2022/03/01 04:08:47;;;;;;;13.00;9.10;;;;;;;4.16;36.95;99295.28;8347356;28;20247;-63
2022/03/01 04:12:50;;;;;;;12.60;9.07;;;;;;;4.13;37.34;99293.56;8347277;28;20432;-64
2022/03/01 04:16:55;;;;;;;10.97;8.23;;;;;;;4.08;37.47;99298.69;8347030;28;20228;-63
2022/03/01 04:20:58;;;;;;;12.73;9.17;;;;;;;4.05;37.92;99308.06;8353020;28;20554;-63
2022/03/01 04:25:01;;;;;;;13.27;9.83;;;;;;;4.03;38.65;99308.06;8353226;28;20239;-63
2022/03/01 04:29:04;;;;;;;13.37;9.67;;;;;;;3.91;38.36;99318.28;8353538;28;20236;-63
2022/03/01 04:33:08;;;;;;;14.40;9.90;;;;;;;3.92;38.57;99312.28;8353283;28;20236;-64
2022/03/01 04:37:11;;;;;;;15.13;10.40;;;;;;;3.89;38.92;99317.41;8353321;28;20227;-63
2022/03/01 04:41:14;;;;;;;15.13;10.63;;;;;;;3.84;38.65;99308.84;8352928;28;20255;-63
2022/03/01 04:45:17;;;;;;;12.63;10.40;;;;;;;3.74;38.97;99307.94;8352789;28;20243;-64
2022/03/01 04:49:22;;;;;;;12.87;10.23;;;;;;;3.65;38.56;99302.78;8353123;28;20228;-63
2022/03/01 04:53:25;;;;;;;15.73;10.40;;;;;;;3.66;38.70;99292.53;8352615;28;20301;-63
2022/03/01 04:57:28;;;;;;;15.37;10.07;;;;;;;3.65;38.39;99295.94;8352966;28;20228;-63
2022/03/01 05:01:31;;;;;;;12.63;9.60;;;;;;;3.65;38.38;99289.97;8352089;28;20499;-64
2022/03/01 05:05:36;;;;;;;12.60;9.50;;;;;;;3.70;38.40;99293.41;8352389;28;20551;-64
2022/03/01 05:09:39;;;;;;;14.10;8.90;;;;;;;3.62;38.82;99285.69;8351932;28;20243;-64
2022/03/01 05:13:42;;;;;;;12.10;9.23;;;;;;;3.61;38.79;99290.81;8351480;28;20232;-63
2022/03/01 05:17:47;;;;;;;11.43;8.70;;;;;;;3.74;38.67;99296.84;8351538;28;20437;-63
2022/03/01 05:21:51;;;;;;;14.87;8.17;;;;;;;3.60;38.89;99296.75;8351632;28;20240;-63
2022/03/01 05:25:54;;;;;;;12.70;8.80;;;;;;;3.67;38.74;99298.50;8351456;28;20239;-63
2022/03/01 05:29:57;;;;;;;12.23;9.10;;;;;;;3.66;38.56;99300.22;8350791;28;20352;-63
2022/03/01 05:34:01;;;;;;;13.83;9.10;;;;;;;3.50;39.06;99300.97;8351208;28;20234;-63
2022/03/01 05:38:07;;;;;;;11.67;8.50;;;;;;;3.58;38.78;99301.91;8351271;28;20228;-63
2022/03/01 05:42:10;;;;;;;13.33;8.67;;;;;;;3.52;38.73;99306.97;8351245;28;20235;-63
2022/03/01 05:46:13;;;;;;;11.27;9.07;;;;;;;3.63;38.57;99301.91;8350963;28;20232;-63
2022/03/01 05:50:19;;;;;;;11.13;8.63;;;;;;;3.53;38.54;99306.97;8350880;28;20512;-63
2022/03/01 05:54:26;;;;;;;14.23;9.70;;;;;;;3.53;38.39;99316.38;8350691;28;20236;-63
2022/03/01 05:58:29;;;;;;;13.70;9.60;;;;;;;3.47;39.02;99314.63;8350815;28;20228;-63
2022/03/01 06:02:32;;;;;;;15.23;9.70;;;;;;;3.56;38.23;99305.28;8349765;28;20422;-64
2022/03/01 06:06:35;;;;;;;19.60;10.13;;;;;;;3.45;38.73;99312.94;8350214;28;20246;-63
2022/03/01 06:10:40;;;;;;;13.53;8.90;;;;;;;3.39;38.74;99311.19;8350079;28;20538;-63
2022/03/01 06:14:43;;;;;;;17.80;9.40;;;;;;;3.48;38.29;99318.06;8350258;28;20232;-63
2022/03/01 06:18:46;;;;;;;14.03;8.80;;;;;;;3.50;38.06;99319.78;8349864;28;20244;-63
2022/03/01 06:22:51;;;;;;;14.93;8.57;;;;;;;3.63;38.26;99318.13;8349596;28;20259;-63
2022/03/01 06:26:58;;;;;;;13.17;8.67;;;;;;;3.82;37.70;99313.94;8349418;28;20232;-63
2022/03/01 06:31:01;;;;;;;15.17;8.03;;;;;;;4.43;37.22;99320.97;8349464;28;20232;-63
2022/03/01 06:35:06;;;;;;;14.33;8.13;;;;;;;4.62;36.72;99328.72;8349243;28;20286;-63
2022/03/01 06:39:16;;;;;;;13.47;8.30;;;;;;;4.83;36.80;99323.59;8349282;28;20228;-63
2022/03/01 06:43:20;;;;;;;12.87;8.63;;;;;;;5.00;36.43;99328.75;8347831;28;20232;-63
2022/03/01 06:47:23;;;;;;;13.27;8.10;;;;;;;5.50;35.87;99329.53;8348928;28;20239;-63
2022/03/01 06:51:27;;;;;;;14.90;8.63;;;;;;;5.51;34.10;99328.69;8348750;28;20236;-63
2022/03/01 06:55:30;;;;;;;14.40;9.67;;;;;;;4.75;35.50;99327.88;8348249;28;20232;-63
2022/03/01 06:59:35;;;;;;;14.17;9.37;;;;;;;6.00;33.98;99331.16;8346899;28;20220;-63
2022/03/01 07:03:39;;;;;;;17.07;9.03;;;;;;;5.00;34.58;99335.59;8344573;28;20240;-63
2022/03/01 07:07:42;;;;;;;14.30;9.27;;;;;;;5.66;33.79;99328.66;8347379;28;20250;-63
2022/03/01 07:11:46;;;;;;;11.93;8.23;;;;;;;4.63;35.41;99336.44;8347198;28;20230;-63
2022/03/01 07:15:50;;;;;;;13.00;8.37;;;;;;;5.59;34.43;99337.22;8346996;28;20393;-63
2022/03/01 07:19:54;;;;;;;11.37;7.87;;;;;;;5.40;34.20;99338.13;8346812;28;20228;-63
2022/03/01 07:23:57;;;;;;;14.17;8.10;;;;;;;4.92;35.03;99327.91;8346673;28;20232;-63
2022/03/01 07:28:01;;;;;;;11.87;7.97;;;;;;;5.58;34.23;99338.09;8344376;28;20228;-63
2022/03/01 07:32:07;;;;;;;9.50;7.27;;;;;;;5.71;33.36;99336.34;8346699;28;20223;-63
2022/03/01 07:36:11;;;;;;;12.30;7.97;;;;;;;5.52;33.43;99344.97;8346995;28;20228;-63
2022/03/01 07:40:15;;;;;;;14.07;7.93;;;;;;;5.17;34.04;99336.44;8346807;28;20235;-63
2022/03/01 07:44:18;;;;;;;11.90;7.80;;;;;;;5.22;33.67;99334.75;8347438;28;20240;-63
2022/03/01 07:48:26;;;;;;;10.60;8.20;;;;;;;4.68;34.41;99339.88;8347476;28;20239;-64
2022/03/01 07:52:30;;;;;;;10.63;7.40;;;;;;;4.98;34.38;99347.59;8345643;28;20552;-63
2022/03/01 07:56:33;;;;;;;13.17;7.67;;;;;;;5.02;34.61;99341.59;8353708;28;20519;-64
2022/03/01 08:00:36;;;;;;;11.47;8.30;;;;;;;5.68;33.50;99339.78;8353822;28;20242;-63
2022/03/01 08:04:42;;;;;;;11.80;7.90;;;;;;;5.99;32.86;99339.72;8321459;28;20389;-63
2022/03/01 08:08:45;;;;;;;11.67;7.43;;;;;;;5.94;32.45;99335.41;8321231;28;20240;-63
2022/03/01 08:12:47;;;;;;;11.97;7.53;;;;;;;6.36;32.30;99329.28;8320680;28;20241;-63
2022/03/01 08:16:51;;;;;;;16.83;7.60;;;;;;;5.83;32.74;99326.03;8319203;28;20333;-63
2022/03/01 08:20:57;;;;;;;11.37;7.30;;;;;;;6.46;31.25;99333.50;8320400;28;20243;-63
2022/03/01 08:25:00;;;;;;;10.23;7.37;;;;;;;7.18;29.55;99339.00;8320570;28;20390;-63
2022/03/01 08:29:03;;;;;;;12.20;7.90;;;;;;;6.53;30.39;99326.59;8320507;28;20283;-63
2022/03/01 08:33:07;;;;;;;8.77;6.90;;;;;;;6.40;30.85;99340.41;8320278;28;20407;-63
2022/03/01 08:37:15;;;;;;;10.47;6.93;;;;;;;7.05;30.28;99326.19;8347493;28;20509;-63
2022/03/01 08:41:18;;;;;;;10.03;6.50;;;;;;;8.07;29.59;99325.13;8352616;28;20235;-63
2022/03/01 08:45:21;;;;;;;9.83;7.20;;;;;;;7.85;29.04;99323.72;8349908;28;20232;-60
2022/03/01 08:49:25;;;;;;;9.07;6.67;;;;;;;8.49;28.59;99322.91;8351304;28;20558;-60
2022/03/01 08:53:30;;;;;;;11.53;7.10;;;;;;;8.22;28.29;99309.47;8352284;28;20232;-64
2022/03/01 08:57:33;;;;;;;9.13;6.80;;;;;;;8.97;27.79;99311.84;8351344;28;20228;-64
2022/03/01 09:01:37;;;;;;;9.47;6.90;;;;;;;9.64;26.81;99306.38;8350853;28;20243;-64
2022/03/01 09:05:41;;;;;;;10.20;7.10;;;;;;;8.43;27.41;99310.06;8350159;28;20583;-64
2022/03/01 09:09:45;;;;;;;9.40;6.80;;;;;;;8.75;27.27;99311.34;8351496;28;20236;-60
2022/03/01 09:13:48;;;;;;;9.23;6.90;;;;;;;9.55;26.21;99312.56;8351972;28;20240;-59
2022/03/01 09:17:51;;;;;;;9.30;6.70;;;;;;;9.76;25.55;99299.19;8351706;28;20441;-60
2022/03/01 09:21:56;;;;;;;9.77;7.50;;;;;;;9.06;26.29;99305.66;8351339;28;20239;-60
2022/03/01 09:26:01;;;;;;;9.80;6.87;;;;;;;9.66;26.02;99289.94;8351561;28;20243;-59
2022/03/01 09:30:06;;;;;;;10.00;6.90;;;;;;;8.99;26.69;99286.84;8350843;28;20280;-59
2022/03/01 09:34:09;;;;;;;13.33;6.43;;;;;;;10.79;24.37;99292.69;8351325;28;20231;-59
2022/03/01 09:38:13;;;;;;;12.30;6.77;;;;;;;10.47;24.34;99290.00;8350557;28;20219;-59
2022/03/01 09:42:20;;;;;;;7.67;6.40;;;;;;;10.19;24.51;99279.34;8347885;28;20232;-60
2022/03/01 09:46:23;;;;;;;8.50;6.20;;;;;;;11.10;22.74;99291.06;8349824;28;20231;-62
2022/03/01 09:50:28;;;;;;;9.87;6.60;;;;;;;10.44;23.98;99274.50;8348732;28;20251;-60
2022/03/01 09:54:31;;;;;;;11.53;7.20;;;;;;;10.70;24.12;99281.69;8348818;28;20231;-61
2022/03/01 09:58:36;;;;;;;8.27;6.17;;;;;;;11.48;23.31;99263.28;8346481;28;20224;-60
2022/03/01 10:02:41;;;;;;;8.60;6.10;;;;;;;11.11;22.98;99271.16;8349061;28;20242;-60
2022/03/01 10:06:46;;;;;;;9.70;6.20;;;;;;;10.63;22.95;99271.50;8348539;28;20288;-60
2022/03/01 10:10:51;;;;;;;12.03;6.70;;;;;;;11.00;22.86;99268.00;8349202;28;20224;-60
2022/03/01 10:15:02;;;;;;;8.40;6.50;;;;;;;11.78;22.48;99252.91;8348942;28;20236;-60
2022/03/01 10:19:10;;;;;;;8.90;6.27;;;;;;;11.14;22.82;99253.78;8346503;28;20230;-60
2022/03/01 10:23:22;;;;;;;8.10;6.23;;;;;;;10.20;24.17;99246.53;8348075;28;20247;-59
2022/03/01 10:27:28;;;;;;;9.13;6.43;;;;;;;11.15;23.41;99236.47;8348284;28;20255;-63
2022/03/01 10:31:34;;;;;;;8.60;6.30;;;;;;;10.45;24.53;99234.78;8348151;28;20230;-63
2022/03/01 10:35:39;;;;;;;10.10;6.00;;;;;;;12.67;22.76;99228.59;8346821;28;20255;-63
2022/03/01 10:39:41;;;;;;;10.97;6.10;;;;;;;11.30;23.35;99212.72;8348444;28;20239;-63
2022/03/01 10:43:53;;;;;;;7.67;6.10;;;;;;;10.17;23.65;99216.41;8349103;28;20282;-62
2022/03/01 10:47:57;;;;;;;10.23;6.50;;;;;;;10.83;23.90;99209.66;8349186;28;20260;-62
2022/03/01 10:52:04;;;;;;;9.50;6.33;;;;;;;9.30;25.84;99213.91;8348596;28;20228;-63
2022/03/01 10:56:16;;;;;;;10.57;6.40;;;;;;;10.91;23.98;99206.91;8349218;28;20511;-60
2022/03/01 11:00:23;;;;;;;8.70;5.77;;;;;;;11.79;23.63;99186.31;8348670;28;20252;-61
2022/03/01 11:04:28;;;;;;;7.53;5.83;;;;;;;10.94;23.17;99178.28;8347654;28;20411;-61
2022/03/01 11:08:33;;;;;;;10.00;5.97;;;;;;;10.42;23.81;99185.66;8347044;28;20597;-62
2022/03/01 11:12:38;;;;;;;8.73;6.30;;;;;;;11.18;23.00;99170.75;8347414;28;20264;-61
2022/03/01 11:16:47;;;;;;;9.87;5.67;;;;;;;10.66;23.75;99175.56;8348672;28;20403;-60
2022/03/01 11:20:55;;;;;;;9.27;5.40;;;;;;;10.68;23.25;99159.09;8347655;28;20539;-60
2022/03/01 11:24:58;;;;;;;6.63;5.40;;;;;;;10.11;24.12;99150.09;8347655;28;20236;-61
2022/03/01 11:29:02;;;;;;;8.17;6.10;;;;;;;11.44;23.13;99139.75;8346779;28;20231;-60
2022/03/01 11:33:06;;;;;;;9.27;5.67;;;;;;;9.74;24.61;99135.41;8346635;28;20231;-60
2022/03/01 11:37:16;;;;;;;8.70;5.77;;;;;;;11.06;23.49;99122.66;8347207;28;20235;-60
2022/03/01 11:41:22;;;;;;;9.20;5.50;;;;;;;11.08;23.28;99115.69;8346029;28;20334;-60
2022/03/01 11:45:34;;;;;;;9.30;5.47;;;;;;;10.03;23.55;99123.53;8346622;28;20243;-61
2022/03/01 11:49:38;;;;;;;8.47;5.60;;;;;;;11.31;22.67;99128.03;8346693;28;20235;-60
2022/03/01 11:53:49;;;;;;;7.33;5.30;;;;;;;11.41;22.37;99119.06;8347257;28;20247;-60
2022/03/01 11:57:53;;;;;;;6.70;4.87;;;;;;;12.31;21.73;99122.38;8347378;28;20561;-61
2022/03/01 12:01:57;;;;;;;6.87;5.40;;;;;;;12.04;21.12;99118.94;8346975;28;20394;-62
2022/03/01 12:06:02;;;;;;;6.60;5.13;;;;;;;12.14;21.75;99109.94;8347461;28;20255;-61
2022/03/01 12:10:08;;;;;;;9.13;5.00;;;;;;;10.77;22.72;99106.16;8347133;28;20232;-61
2022/03/01 12:14:12;;;;;;;5.80;5.20;;;;;;;11.40;22.47;99104.38;8347136;28;20339;-60
2022/03/01 12:18:17;;;;;;;8.93;4.83;;;;;;;10.90;22.75;99093.75;8347109;28;20410;-61
2022/03/01 12:22:20;;;;;;;11.03;5.10;;;;;;;10.39;22.89;99094.22;8346310;28;20239;-61
2022/03/01 12:26:27;;;;;;;6.37;4.73;;;;;;;11.61;22.02;99092.53;8345697;28;20252;-60
2022/03/01 12:30:31;;;;;;;7.03;5.20;;;;;;;11.33;21.93;99101.16;8346394;28;20290;-61
2022/03/01 12:34:37;;;;;;;6.97;4.77;;;;;;;11.34;21.27;99091.59;8345897;28;20240;-60
2022/03/01 12:38:40;;;;;;;5.67;4.53;;;;;;;11.44;21.44;99087.00;8346580;28;20246;-60
2022/03/01 12:42:46;;;;;;;8.50;4.37;;;;;;;11.74;21.30;99086.06;8351242;28;20240;-61
2022/03/01 12:46:50;;;;;;;5.43;4.77;;;;;;;11.99;20.57;99084.47;8351874;28;20509;-58
2022/03/01 12:50:54;;;;;;;7.37;4.83;;;;;;;12.99;20.03;99078.47;8352028;28;20251;-59
2022/03/01 12:54:57;;;;;;;6.27;4.53;;;;;;;13.28;20.16;99077.38;8352397;28;20232;-60
2022/03/01 12:59:07;;;;;;;20.47;4.83;;;;;;;11.41;19.78;99068.94;8351854;28;20232;-59
2022/03/01 13:03:10;;;;;;;8.20;4.50;;;;;;;12.14;19.72;99058.00;8351935;28;20243;-59
2022/03/01 13:07:14;;;;;;;5.63;4.17;;;;;;;11.82;19.95;99051.22;8352130;28;20466;-59
2022/03/01 13:11:18;;;;;;;7.27;4.00;;;;;;;11.85;20.09;99054.59;8351987;28;20511;-59
2022/03/01 13:15:24;;;;;;;6.77;4.03;;;;;;;12.39;19.16;99052.81;8351678;28;20408;-59
2022/03/01 13:19:28;;;;;;;6.50;4.30;;;;;;;13.22;19.25;99044.63;8351728;28;20553;-59
2022/03/01 13:23:33;;;;;;;5.37;4.30;;;;;;;13.47;19.45;99041.13;8351028;28;20251;-60
2022/03/01 13:27:48;;;;;;;6.60;4.37;;;;;;;13.45;18.68;99035.97;8351195;28;20243;-60
2022/03/01 13:32:06;;;;;;;5.43;4.27;;;;;;;13.45;17.98;99032.53;8351547;28;20240;-59
2022/03/01 13:36:14;;;;;;;4.47;3.63;;;;;;;13.05;18.49;99018.41;8351125;28;20232;-59
2022/03/01 13:40:19;;;;;;;6.00;3.90;;;;;;;12.75;18.42;99018.63;8351448;28;20231;-59
2022/03/01 13:44:25;;;;;;;5.47;3.70;;;;;;;13.11;18.85;99011.22;8350893;28;20459;-59
2022/03/01 13:48:31;;;;;;;5.57;3.60;;;;;;;12.64;18.62;99015.56;8350536;28;20232;-59
2022/03/01 13:52:36;;;;;;;4.60;3.77;;;;;;;12.95;17.92;99007.53;8349636;28;20231;-58
2022/03/01 13:56:40;;;;;;;6.53;3.80;;;;;;;13.42;17.69;99006.63;8350562;28;20236;-59
2022/03/01 14:00:45;;;;;;;4.00;3.33;;;;;;;12.47;17.76;98993.66;8350520;28;20597;-59
2022/03/01 14:04:58;;;;;;;7.93;4.23;;;;;;;13.46;17.81;98985.63;8350086;28;20247;-59
2022/03/01 14:09:01;;;;;;;5.27;3.80;;;;;;;13.27;18.47;98988.09;8350173;28;20422;-59
2022/03/01 14:13:06;;;;;;;4.87;3.60;;;;;;;12.32;18.13;98982.06;8350622;28;20287;-59
2022/03/01 14:17:20;;;;;;;4.97;3.63;;;;;;;12.37;18.37;98974.09;8349155;28;20240;-61
2022/03/01 14:21:25;;;;;;;4.73;3.70;;;;;;;12.23;18.22;98968.56;8349515;28;20310;-59
2022/03/01 14:25:29;;;;;;;4.50;3.40;;;;;;;12.55;17.75;98967.41;8350154;28;20239;-59
2022/03/01 14:29:37;;;;;;;5.10;3.47;;;;;;;12.41;18.42;98967.03;8348921;28;20330;-59
2022/03/01 14:33:40;;;;;;;4.33;3.23;;;;;;;12.17;18.61;98948.00;8348903;28;20247;-60
2022/03/01 14:37:45;;;;;;;5.43;3.80;;;;;;;11.68;18.62;98961.69;8348434;28;20232;-59
2022/03/01 14:41:48;;;;;;;4.00;3.40;;;;;;;11.21;18.98;98961.47;8348815;28;20239;-59
2022/03/01 14:45:51;;;;;;;3.90;3.50;;;;;;;11.25;19.05;98959.63;8348584;28;20244;-59
2022/03/01 14:49:54;;;;;;;5.50;3.70;;;;;;;11.87;19.17;98953.31;8348746;28;20231;-59
2022/03/01 14:53:58;;;;;;;8.87;3.70;;;;;;;11.45;19.82;98954.66;8348764;28;20232;-59
2022/03/01 14:58:02;;;;;;;5.47;3.70;;;;;;;11.26;19.54;98950.97;8348777;28;20623;-61
2022/03/01 15:02:06;;;;;;;5.77;3.60;;;;;;;11.57;19.46;98943.03;8347648;28;20234;-59
2022/03/01 15:06:10;;;;;;;4.63;3.60;;;;;;;11.25;19.52;98947.53;8348480;28;20232;-59
2022/03/01 15:10:18;;;;;;;7.07;3.60;;;;;;;11.03;19.83;98941.31;8348186;28;20239;-59
2022/03/01 15:14:21;;;;;;;3.83;3.10;;;;;;;11.31;19.54;98939.56;8348287;28;20239;-62
2022/03/01 15:18:24;;;;;;;5.50;4.00;;;;;;;11.16;19.77;98945.22;8347917;28;20262;-62
2022/03/01 15:22:27;;;;;;;4.90;3.70;;;;;;;11.12;19.91;98944.47;8348356;28;20251;-62
2022/03/01 15:26:31;;;;;;;3.97;3.10;;;;;;;11.07;20.10;98940.31;8346486;28;20232;-63
2022/03/01 15:30:34;;;;;;;8.73;3.97;;;;;;;11.55;19.71;98932.72;8346743;28;20224;-63
2022/03/01 15:34:38;;;;;;;6.00;3.37;;;;;;;11.93;19.88;98924.56;8347799;28;20289;-63
2022/03/01 15:38:41;;;;;;;5.60;4.57;;;;;;;11.18;19.45;98933.06;8348014;28;20247;-62
2022/03/01 15:42:46;;;;;;;5.18;3.80;;;;;;;11.70;19.24;98928.75;8345906;28;20418;-62
2022/03/01 15:46:49;;;;;;;7.67;3.37;;;;;;;10.87;19.95;98925.38;8347482;28;20235;-63
2022/03/01 15:50:53;;;;;;;6.10;3.70;;;;;;;10.64;19.70;98920.88;8348146;28;20234;-63
2022/03/01 15:54:56;;;;;;;5.10;4.40;;;;;;;10.44;20.52;98930.06;8347451;28;20228;-63
2022/03/01 15:59:00;;;;;;;7.00;3.77;;;;;;;10.20;21.48;98928.13;8347416;28;20231;-62
2022/03/01 16:03:03;;;;;;;9.67;7.10;;;;;;;10.94;21.54;98932.06;8347090;28;20228;-63
2022/03/01 16:07:06;;;;;;;12.43;5.63;;;;;;;10.63;21.28;98940.75;8347147;28;20451;-63
2022/03/01 16:11:10;;;;;;;7.33;3.87;;;;;;;10.22;21.76;98939.28;8346155;28;20224;-66
2022/03/01 16:15:14;;;;;;;8.80;4.50;;;;;;;10.52;21.81;98937.63;8348870;28;20421;-64
2022/03/01 16:19:17;;;;;;;5.77;4.60;;;;;;;10.26;21.84;98941.78;8352256;28;20228;-64
2022/03/01 16:23:21;;;;;;;7.67;5.37;;;;;;;10.46;22.71;98935.22;8352685;28;20250;-64
2022/03/01 16:27:24;;;;;;;4.90;3.93;;;;;;;10.43;22.07;98938.72;8352442;28;20306;-64
2022/03/01 16:31:29;;;;;;;5.90;4.00;;;;;;;10.35;21.99;98935.50;8352572;28;20527;-69
2022/03/01 16:35:32;;;;;;;8.03;6.40;;;;;;;10.30;22.30;98938.25;8351900;28;20231;-64
2022/03/01 16:39:36;;;;;;;6.17;4.73;;;;;;;10.47;22.63;98942.94;8352301;28;20234;-63
2022/03/01 16:43:39;;;;;;;5.37;4.30;;;;;;;10.39;22.12;98947.47;8351883;28;20232;-64
2022/03/01 16:47:44;;;;;;;5.83;4.03;;;;;;;10.31;23.14;98952.03;8349576;28;20512;-63
2022/03/01 16:51:47;;;;;;;5.57;4.07;;;;;;;10.29;22.97;98957.22;8352710;28;20231;-63
2022/03/01 16:55:50;;;;;;;6.67;4.00;;;;;;;10.47;23.32;98966.25;8352556;28;20242;-63
2022/03/01 16:59:53;;;;;;;5.57;4.17;;;;;;;10.41;24.47;98971.59;8351640;28;20235;-62
2022/03/01 17:03:58;;;;;;;6.87;4.30;;;;;;;10.29;23.90;98964.13;8351535;28;20236;-62
2022/03/01 17:08:01;;;;;;;9.27;4.57;;;;;;;10.27;23.92;98964.16;8351344;28;20231;-63
2022/03/01 17:12:05;;;;;;;5.63;4.47;;;;;;;10.24;23.76;98966.81;8348600;28;20224;-62
2022/03/01 17:16:08;;;;;;;6.40;4.00;;;;;;;10.21;24.43;98959.16;8350406;28;20232;-62
2022/03/01 17:20:13;;;;;;;7.30;4.87;;;;;;;10.22;24.59;98972.94;8350756;28;20414;-63
2022/03/01 17:24:17;;;;;;;8.33;5.30;;;;;;;10.18;24.72;98977.34;8348062;28;20543;-62
2022/03/01 17:28:20;;;;;;;6.53;5.53;;;;;;;10.09;24.71;98964.66;8350737;28;20232;-63
2022/03/01 17:32:22;;;;;;;11.43;5.00;;;;;;;10.09;25.13;98964.66;8351387;28;20228;-63
2022/03/01 17:36:27;;;;;;;7.60;5.63;;;;;;;10.01;26.12;98959.69;8350936;28;20236;-62
2022/03/01 17:40:30;;;;;;;7.27;5.00;;;;;;;9.93;25.50;98964.22;8349509;28;20243;-64
2022/03/01 17:44:33;;;;;;;10.17;5.97;;;;;;;9.74;27.02;98964.66;8349849;28;20223;-64
2022/03/01 17:48:36;;;;;;;9.90;7.53;;;;;;;9.70;27.63;98964.81;8349189;28;20299;-64
2022/03/01 17:52:41;;;;;;;16.87;11.17;;;;;;;9.62;27.55;98966.75;8350005;28;20228;-64
2022/03/01 17:56:44;;;;;;;15.53;11.27;;;;;;;9.45;28.54;98959.38;8347390;28;20243;-64
2022/03/01 18:00:47;;;;;;;13.33;11.60;;;;;;;9.40;27.63;98964.66;8350617;28;20235;-63
2022/03/01 18:04:50;;;;;;;16.90;11.87;;;;;;;9.29;28.48;98970.09;8350178;28;20240;-64
2022/03/01 18:08:55;;;;;;;15.70;11.33;;;;;;;9.23;28.46;98961.59;8350201;28;20239;-64
2022/03/01 18:12:58;;;;;;;18.60;13.17;;;;;;;9.09;29.40;98956.75;8349735;28;20261;-64
2022/03/01 18:17:01;;;;;;;32.63;17.83;;;;;;;9.06;29.82;98965.41;8349933;28;20243;-65
2022/03/01 18:21:05;;;;;;;27.17;16.60;;;;;;;8.97;29.30;98955.31;8349832;28;20228;-65
2022/03/01 18:25:10;;;;;;;21.80;14.37;;;;;;;8.88;30.55;98964.09;8349673;28;20428;-64
2022/03/01 18:29:14;;;;;;;26.60;16.03;;;;;;;8.73;30.59;98964.44;8349275;28;20412;-64
2022/03/01 18:33:19;;;;;;;23.70;14.90;;;;;;;8.61;31.29;98965.53;8348350;28;20248;-64
2022/03/01 18:37:22;;;;;;;19.03;9.83;;;;;;;8.51;30.33;98971.75;8349180;28;20298;-65
2022/03/01 18:41:27;;;;;;;14.07;9.07;;;;;;;8.52;29.84;98970.88;8349063;28;20228;-65
2022/03/01 18:45:30;;;;;;;12.60;7.07;;;;;;;8.31;30.01;98964.38;8349259;28;20442;-65
2022/03/01 18:49:34;;;;;;;16.20;10.70;;;;;;;8.25;30.06;98967.91;8347836;28;20232;-65
2022/03/01 18:53:37;;;;;;;17.50;9.40;;;;;;;8.22;30.00;98965.38;8348110;28;20236;-65
2022/03/01 18:57:43;;;;;;;19.10;11.20;;;;;;;8.21;30.17;98958.53;8347852;28;20289;-64
2022/03/01 19:01:46;;;;;;;20.97;12.37;;;;;;;8.13;31.03;98955.22;8346259;28;20232;-61
2022/03/01 19:05:49;;;;;;;17.80;12.53;;;;;;;8.04;31.43;98953.69;8348447;28;20243;-61
2022/03/01 19:09:53;;;;;;;17.43;12.50;;;;;;;7.90;32.58;98948.78;8348489;28;20319;-61